createdAt,value
2022-08-29T00:01:12.665Z,68781.41
2022-08-29T00:03:41.041Z,68785.78
2022-08-29T00:06:09.372Z,68778.97
2022-08-29T00:08:36.522Z,68780.66
2022-08-29T00:11:06.627Z,68783.69
2022-08-29T00:13:34.999Z,68778.00
2022-08-29T00:16:02.313Z,68775.75
2022-08-29T00:18:29.684Z,68768.34
2022-08-29T00:20:56.917Z,68772.88
2022-08-29T00:23:24.418Z,68769.47
2022-08-29T00:25:51.525Z,68736.44
2022-08-29T00:28:18.793Z,68752.44
2022-08-29T00:30:46.638Z,68742.94
2022-08-29T00:33:13.713Z,68740.09
2022-08-29T00:35:42.985Z,68734.41
2022-08-29T00:38:13.620Z,68737.06
2022-08-29T00:40:51.696Z,68718.69
2022-08-29T00:43:22.371Z,68722.28
2022-08-29T00:46:34.693Z,68708.81
2022-08-29T00:49:11.888Z,68700.88
2022-08-29T00:51:41.101Z,68695.19
2022-08-29T00:54:10.813Z,68696.72
2022-08-29T00:56:40.044Z,68681.00
2022-08-29T00:59:16.479Z,68683.25
2022-08-29T01:01:44.403Z,68675.88
2022-08-29T01:04:14.728Z,68672.84
2022-08-29T01:06:43.356Z,68663.00
2022-08-29T01:09:11.099Z,68670.00
2022-08-29T01:11:57.332Z,68662.06
2022-08-29T01:14:27.146Z,68659.78
2022-08-29T01:16:57.682Z,68654.66
2022-08-29T01:19:44.866Z,68642.91
2022-08-29T01:22:34.848Z,68637.81
2022-08-29T01:25:06.056Z,68638.91
2022-08-29T01:27:36.954Z,68614.84
2022-08-29T01:30:06.847Z,68609.16
2022-08-29T01:32:34.103Z,68625.28
2022-08-29T01:35:01.795Z,68625.28
2022-08-29T01:37:33.228Z,68599.50
2022-08-29T01:40:00.447Z,68625.13
2022-08-29T01:42:27.607Z,68600.66
2022-08-29T01:45:00.850Z,68634.00
2022-08-29T01:47:32.096Z,68605.75
2022-08-29T01:49:59.495Z,68626.44
2022-08-29T01:52:26.631Z,68634.78
2022-08-29T01:54:54.021Z,68612.56
2022-08-29T01:57:21.773Z,68624.34
2022-08-29T01:59:49.273Z,68610.88
2022-08-29T02:02:27.355Z,68625.88
2022-08-29T02:04:58.739Z,68625.13
2022-08-29T02:07:26.541Z,68627.59
2022-08-29T02:09:53.968Z,68622.47
2022-08-29T02:12:21.638Z,68625.50
2022-08-29T02:14:50.760Z,68626.25
2022-08-29T02:17:18.033Z,68617.94
2022-08-29T02:19:46.027Z,68616.03
2022-08-29T02:22:13.361Z,68595.53
2022-08-29T02:24:41.651Z,68614.91
2022-08-29T02:27:10.407Z,68617.34
2022-08-29T02:29:38.398Z,68610.72
2022-08-29T02:32:11.981Z,68606.56
2022-08-29T02:34:40.312Z,68607.13
2022-08-29T02:37:13.016Z,68607.28
2022-08-29T02:39:40.128Z,68607.13
2022-08-29T02:42:07.455Z,68599.56
2022-08-29T02:44:34.637Z,68598.81
2022-08-29T02:47:01.926Z,68587.25
2022-08-29T02:49:29.212Z,68579.13
2022-08-29T02:51:57.681Z,68577.59
2022-08-29T02:54:24.849Z,68562.84
2022-08-29T02:56:52.319Z,68539.34
2022-08-29T02:59:19.486Z,68562.06
2022-08-29T03:01:46.655Z,68539.91
2022-08-29T03:04:13.917Z,68568.13
2022-08-29T03:06:41.138Z,68567.00
2022-08-29T03:09:08.275Z,68568.91
2022-08-29T03:11:35.603Z,68566.03
2022-08-29T03:14:02.923Z,68556.22
2022-08-29T03:16:30.490Z,68555.06
2022-08-29T03:18:57.759Z,68559.81
2022-08-29T03:21:26.730Z,68551.47
2022-08-29T03:23:56.377Z,68531.41
2022-08-29T03:26:24.362Z,68556.41
2022-08-29T03:28:51.937Z,68550.34
2022-08-29T03:31:19.200Z,68549.78
2022-08-29T03:33:46.577Z,68555.06
2022-08-29T03:36:14.905Z,68546.56
2022-08-29T03:38:43.664Z,68555.84
2022-08-29T03:41:11.351Z,68556.97
2022-08-29T03:43:38.740Z,68551.47
2022-08-29T03:46:06.131Z,68527.41
2022-08-29T03:48:33.838Z,68541.25
2022-08-29T03:51:01.331Z,68540.13
2022-08-29T03:53:28.669Z,68536.16
2022-08-29T03:55:58.003Z,68525.94
2022-08-29T03:58:25.177Z,68526.88
2022-08-29T04:00:52.456Z,68527.81
2022-08-29T04:03:20.322Z,68527.44
2022-08-29T04:05:55.202Z,68522.91
2022-08-29T04:08:22.464Z,68536.53
2022-08-29T04:10:49.969Z,68538.06
2022-08-29T04:13:17.119Z,68538.81
2022-08-29T04:15:44.353Z,68522.31
2022-08-29T04:18:12.072Z,68549.03
2022-08-29T04:20:44.764Z,68562.47
2022-08-29T04:23:15.388Z,68563.78
2022-08-29T04:25:44.145Z,68538.78
2022-08-29T04:28:13.762Z,68549.78
2022-08-29T04:30:51.476Z,68551.31
2022-08-29T04:33:22.712Z,68541.25
2022-08-29T04:35:51.614Z,68556.22
2022-08-29T04:38:19.484Z,68543.34
2022-08-29T04:40:47.658Z,68541.66
2022-08-29T04:43:14.983Z,68549.59
2022-08-29T04:45:42.433Z,68538.44
2022-08-29T04:48:10.920Z,68537.28
2022-08-29T04:50:38.313Z,68544.47
2022-08-29T04:53:05.565Z,68544.69
2022-08-29T04:55:33.083Z,68547.88
2022-08-29T04:58:00.507Z,68552.25
2022-08-29T05:00:30.237Z,68554.88
2022-08-29T05:02:58.135Z,68558.28
2022-08-29T05:05:26.029Z,68525.72
2022-08-29T05:07:53.834Z,68550.16
2022-08-29T05:10:22.507Z,68548.44
2022-08-29T05:12:49.779Z,68550.16
2022-08-29T05:15:17.484Z,68536.50
2022-08-29T05:17:45.830Z,68543.91
2022-08-29T05:20:13.566Z,68546.19
2022-08-29T05:22:42.180Z,68547.31
2022-08-29T05:25:17.290Z,68547.50
2022-08-29T05:27:45.983Z,68550.91
2022-08-29T05:30:14.097Z,68567.19
2022-08-29T05:32:41.316Z,68561.88
2022-08-29T05:35:09.386Z,68563.22
2022-08-29T05:37:37.387Z,68568.13
2022-08-29T05:40:05.481Z,68591.03
2022-08-29T05:42:34.048Z,68588.00
2022-08-29T05:45:04.159Z,68589.91
2022-08-29T05:47:33.361Z,68590.09
2022-08-29T05:50:01.975Z,68605.25
2022-08-29T05:52:29.586Z,68617.56
2022-08-29T05:54:56.815Z,68604.66
2022-08-29T05:57:24.515Z,68617.16
2022-08-29T05:59:53.661Z,68622.84
2022-08-29T06:02:22.296Z,68621.13
2022-08-29T06:04:50.318Z,68626.81
2022-08-29T06:07:18.011Z,68624.91
2022-08-29T06:09:45.412Z,68646.13
2022-08-29T06:12:15.446Z,68651.06
2022-08-29T06:14:50.406Z,68670.00
2022-08-29T06:17:18.414Z,68686.66
2022-08-29T06:19:45.767Z,68702.97
2022-08-29T06:22:13.385Z,68707.69
2022-08-29T06:24:44.428Z,68726.28
2022-08-29T06:27:13.096Z,68741.63
2022-08-29T06:29:43.691Z,68762.66
2022-08-29T06:32:12.470Z,68813.84
2022-08-29T06:34:40.667Z,68846.84
2022-08-29T06:37:08.666Z,68859.25
2022-08-29T06:39:36.217Z,68880.38
2022-08-29T06:42:03.767Z,68847.31
2022-08-29T06:44:31.464Z,68862.94
2022-08-29T06:46:59.614Z,68821.41
2022-08-29T06:49:27.982Z,68836.03
2022-08-29T06:51:58.431Z,68811.19
2022-08-29T06:54:28.196Z,68816.13
2022-08-29T06:56:57.633Z,68822.56
2022-08-29T06:59:25.367Z,68809.22
2022-08-29T07:01:54.365Z,68844.56
2022-08-29T07:04:21.756Z,68858.22
2022-08-29T07:06:50.439Z,68867.88
2022-08-29T07:09:17.890Z,68864.66
2022-08-29T07:11:45.473Z,68857.53
2022-08-29T07:14:13.461Z,68884.97
2022-08-29T07:16:41.446Z,68882.09
2022-08-29T07:19:10.322Z,68870.91
2022-08-29T07:21:37.919Z,68892.34
2022-08-29T07:24:06.337Z,68905.03
2022-08-29T07:26:42.089Z,68912.66
2022-08-29T07:29:20.543Z,68884.56
2022-08-29T07:31:48.747Z,68894.78
2022-08-29T07:34:20.268Z,68894.78
2022-08-29T07:36:48.145Z,68898.78
2022-08-29T07:39:17.961Z,68895.94
2022-08-29T07:41:45.438Z,68902.75
2022-08-29T07:44:13.850Z,68920.78
2022-08-29T07:46:41.734Z,68939.59
2022-08-29T07:49:09.181Z,68949.28
2022-08-29T07:51:36.557Z,68948.13
2022-08-29T07:54:04.453Z,68938.94
2022-08-29T07:56:38.055Z,68960.28
2022-08-29T07:59:06.211Z,68964.66
2022-08-29T08:01:33.760Z,68961.69
2022-08-29T08:04:01.308Z,69009.63
2022-08-29T08:06:28.440Z,68996.41
2022-08-29T08:08:58.035Z,69021.03
2022-08-29T08:11:26.330Z,68981.03
2022-08-29T08:13:55.237Z,69017.75
2022-08-29T08:16:25.092Z,69033.53
2022-08-29T08:18:52.925Z,69040.78
2022-08-29T08:21:20.635Z,69045.50
2022-08-29T08:23:48.352Z,69067.50
2022-08-29T08:26:16.239Z,69060.19
2022-08-29T08:28:43.926Z,69079.31
2022-08-29T08:31:12.225Z,69079.88
2022-08-29T08:33:42.660Z,69095.25
2022-08-29T08:36:23.242Z,69086.97
2022-08-29T08:38:52.189Z,69092.81
2022-08-29T08:41:29.676Z,69056.78
2022-08-29T08:44:32.975Z,69109.34
2022-08-29T08:47:07.426Z,69114.06
2022-08-29T08:49:39.819Z,69137.44
2022-08-29T08:52:16.051Z,69103.50
2022-08-29T08:54:52.006Z,69134.41
2022-08-29T08:57:21.390Z,69138.59
2022-08-29T08:59:57.378Z,69153.09
2022-08-29T09:02:35.396Z,69210.44
2022-08-29T09:05:29.821Z,69190.69
2022-08-29T09:08:14.549Z,69196.41
2022-08-29T09:11:03.883Z,69198.44
2022-08-29T09:13:59.586Z,69235.50
2022-08-29T09:16:34.713Z,69251.31
2022-08-29T09:19:09.536Z,69236.66
2022-08-29T09:21:48.419Z,69201.13
2022-08-29T09:24:29.052Z,69181.72
2022-08-29T09:26:56.442Z,69163.91
2022-08-29T09:29:28.171Z,69213.28
2022-08-29T09:32:11.132Z,69222.81
2022-08-29T09:35:06.782Z,69178.69
2022-08-29T09:37:34.993Z,69206.81
2022-08-29T09:40:12.546Z,69232.66
2022-08-29T09:42:51.976Z,69231.72
2022-08-29T09:45:25.098Z,69257.75
2022-08-29T09:48:10.521Z,69271.28
2022-08-29T09:50:38.281Z,69244.47
2022-08-29T09:53:09.758Z,69249.44
2022-08-29T09:55:52.447Z,69270.31
2022-08-29T09:58:20.054Z,69270.91
2022-08-29T10:01:11.679Z,69289.53
2022-08-29T10:03:44.385Z,69294.09
2022-08-29T10:06:16.550Z,69302.69
2022-08-29T10:09:00.118Z,69285.38
2022-08-29T10:11:42.115Z,69287.66
2022-08-29T10:14:22.768Z,69292.22
2022-08-29T10:17:26.670Z,69285.38
2022-08-29T10:19:53.876Z,69322.78
2022-08-29T10:22:35.947Z,69330.78
2022-08-29T10:25:26.489Z,69349.47
2022-08-29T10:28:05.194Z,69376.28
2022-08-29T10:30:58.860Z,69388.44
2022-08-29T10:33:44.468Z,69393.41
2022-08-29T10:36:20.762Z,69383.72
2022-08-29T10:39:01.810Z,69381.59
2022-08-29T10:41:29.058Z,69376.69
2022-08-29T10:43:56.261Z,69380.47
2022-08-29T10:46:51.325Z,69404.28
2022-08-29T10:49:30.404Z,69398.16
2022-08-29T10:52:10.795Z,69368.47
2022-08-29T10:55:19.670Z,69355.34
2022-08-29T10:57:53.570Z,69346.78
2022-08-29T11:00:24.594Z,69339.56
2022-08-29T11:03:08.559Z,69352.72
2022-08-29T11:05:43.060Z,69396.44
2022-08-29T11:08:18.293Z,69413.16
2022-08-29T11:10:50.212Z,69401.78
2022-08-29T11:13:26.461Z,69419.28
2022-08-29T11:16:14.018Z,69437.19
2022-08-29T11:18:48.219Z,69450.91
2022-08-29T11:21:34.709Z,69404.63
2022-08-29T11:24:04.238Z,69435.69
2022-08-29T11:26:34.792Z,69448.41
2022-08-29T11:29:15.591Z,69415.09
2022-08-29T11:32:09.762Z,69410.00
2022-08-29T11:35:14.064Z,69420.25
2022-08-29T11:37:50.193Z,69444.78
2022-08-29T11:41:26.367Z,69496.38
2022-08-29T11:43:37.202Z,69491.44
2022-08-29T11:46:07.863Z,69500.00
2022-08-29T11:48:39.692Z,69487.44
2022-08-29T11:51:37.710Z,69507.25
2022-08-29T11:54:37.077Z,69485.53
2022-08-29T11:57:04.468Z,69465.94
2022-08-29T11:59:50.795Z,69452.97
2022-08-29T12:02:33.213Z,69493.94
2022-08-29T12:05:29.876Z,69485.13
2022-08-29T12:08:36.958Z,69485.72
2022-08-29T12:11:06.318Z,69498.88
2022-08-29T12:13:48.796Z,69489.53
2022-08-29T12:16:19.498Z,69479.44
2022-08-29T12:18:52.817Z,69486.53
2022-08-29T12:21:36.030Z,69478.13
2022-08-29T12:24:05.447Z,69480.25
2022-08-29T12:26:38.481Z,69474.13
2022-08-29T12:29:10.297Z,69471.25
2022-08-29T12:32:22.989Z,69473.75
2022-08-29T12:35:27.526Z,69507.81
2022-08-29T12:38:03.194Z,69499.44
2022-08-29T12:40:45.195Z,69515.81
2022-08-29T12:43:26.123Z,69482.88
2022-08-29T12:45:55.395Z,69504.97
2022-08-29T12:48:31.928Z,69491.81
2022-08-29T12:51:00.736Z,69460.59
2022-08-29T12:53:35.006Z,69474.13
2022-08-29T12:56:16.676Z,69488.41
2022-08-29T12:58:52.922Z,69434.31
2022-08-29T13:01:25.792Z,69453.78
2022-08-29T13:04:06.478Z,69439.44
2022-08-29T13:06:34.406Z,69480.97
2022-08-29T13:09:02.484Z,69462.31
2022-08-29T13:11:32.145Z,69478.31
2022-08-29T13:14:12.226Z,69520.78
2022-08-29T13:16:40.209Z,69546.66
2022-08-29T13:19:21.424Z,69519.41
2022-08-29T13:21:48.693Z,69531.81
2022-08-29T13:24:20.751Z,69474.31
2022-08-29T13:27:04.925Z,69487.44
2022-08-29T13:29:39.856Z,69502.69
2022-08-29T13:32:26.771Z,69503.81
2022-08-29T13:35:06.323Z,69486.28
2022-08-29T13:37:37.182Z,69524.97
2022-08-29T13:40:41.891Z,69522.09
2022-08-29T13:43:37.071Z,69480.25
2022-08-29T13:46:15.532Z,69457.16
2022-08-29T13:48:43.944Z,69480.25
2022-08-29T13:51:11.851Z,69489.53
2022-08-29T13:53:39.119Z,69496.97
2022-08-29T13:56:23.322Z,69480.59
2022-08-29T13:58:51.302Z,69500.97
2022-08-29T14:01:30.548Z,69496.97
2022-08-29T14:04:03.470Z,69490.69
2022-08-29T14:06:33.118Z,69507.25
2022-08-29T14:09:02.031Z,69520.41
2022-08-29T14:11:29.691Z,69521.53
2022-08-29T14:13:56.974Z,69512.97
2022-08-29T14:16:24.987Z,69517.78
2022-08-29T14:18:53.755Z,69519.81
2022-08-29T14:21:20.904Z,69539.22
2022-08-29T14:23:48.571Z,69528.22
2022-08-29T14:26:15.605Z,69516.97
2022-08-29T14:28:48.012Z,69478.88
2022-08-29T14:31:15.442Z,69468.03
2022-08-29T14:33:42.837Z,69501.72
2022-08-29T14:36:12.439Z,69568.25
2022-08-29T14:38:39.533Z,69559.44
2022-08-29T14:41:06.870Z,69562.84
2022-08-29T14:43:39.632Z,69580.25
2022-08-29T14:46:07.937Z,69579.81
2022-08-29T14:48:35.622Z,69579.44
2022-08-29T14:51:02.905Z,69605.38
2022-08-29T14:53:30.951Z,69584.56
2022-08-29T14:56:01.112Z,69569.53
2022-08-29T14:58:28.438Z,69557.34
2022-08-29T15:00:58.706Z,69533.69
2022-08-29T15:03:26.014Z,69562.84
2022-08-29T15:05:53.428Z,69568.56
2022-08-29T15:08:20.793Z,69612.41
2022-08-29T15:10:48.271Z,69622.69
2022-08-29T15:13:15.428Z,69597.38
2022-08-29T15:15:42.799Z,69579.66
2022-08-29T15:18:23.499Z,69559.84
2022-08-29T15:20:58.157Z,69529.53
2022-08-29T15:23:26.223Z,69529.53
2022-08-29T15:25:53.971Z,69511.81
2022-08-29T15:28:21.130Z,69531.22
2022-08-29T15:30:49.148Z,69523.41
2022-08-29T15:33:16.421Z,69561.56
2022-08-29T15:35:43.567Z,69557.13
2022-08-29T15:38:10.661Z,69577.16
2022-08-29T15:40:37.877Z,69581.16
2022-08-29T15:43:05.171Z,69580.56
2022-08-29T15:45:32.357Z,69611.81
2022-08-29T15:48:00.400Z,69611.81
2022-08-29T15:50:28.653Z,69607.66
2022-08-29T15:52:56.077Z,69585.53
2022-08-29T15:55:23.648Z,69583.25
2022-08-29T15:57:52.419Z,69572.41
2022-08-29T16:00:30.514Z,69571.66
2022-08-29T16:03:02.796Z,69542.28
2022-08-29T16:05:31.691Z,69526.84
2022-08-29T16:07:59.262Z,69524.56
2022-08-29T16:10:26.581Z,69548.94
2022-08-29T16:12:53.995Z,69564.97
2022-08-29T16:15:21.390Z,69540.00
2022-08-29T16:17:48.991Z,69539.41
2022-08-29T16:20:16.331Z,69535.22
2022-08-29T16:22:43.554Z,69536.06
2022-08-29T16:25:12.553Z,69539.63
2022-08-29T16:27:40.164Z,69518.69
2022-08-29T16:30:09.840Z,69470.31
2022-08-29T16:32:37.543Z,69482.13
2022-08-29T16:35:06.402Z,69464.97
2022-08-29T16:37:34.214Z,69466.13
2022-08-29T16:40:01.682Z,69447.47
2022-08-29T16:42:30.690Z,69474.69
2022-08-29T16:44:59.834Z,69480.63
2022-08-29T16:47:27.960Z,69473.56
2022-08-29T16:49:55.161Z,69456.97
2022-08-29T16:52:22.336Z,69448.06
2022-08-29T16:54:50.719Z,69413.22
2022-08-29T16:57:21.456Z,69405.22
2022-08-29T16:59:48.642Z,69401.22
2022-08-29T17:02:16.260Z,69408.28
2022-08-29T17:04:43.490Z,69396.84
2022-08-29T17:07:10.656Z,69379.31
2022-08-29T17:09:37.833Z,69369.84
2022-08-29T17:12:05.232Z,69348.88
2022-08-29T17:14:34.240Z,69342.75
2022-08-29T17:17:03.000Z,69317.88
2022-08-29T17:19:33.308Z,69338.44
2022-08-29T17:22:00.951Z,69338.03
2022-08-29T17:24:28.325Z,69336.50
2022-08-29T17:26:55.643Z,69329.06
2022-08-29T17:29:23.094Z,69331.38
2022-08-29T17:31:50.255Z,69319.22
2022-08-29T17:34:18.028Z,69302.28
2022-08-29T17:36:45.096Z,69295.41
2022-08-29T17:39:12.770Z,69265.97
2022-08-29T17:41:40.153Z,69282.13
2022-08-29T17:44:09.966Z,69269.38
2022-08-29T17:46:37.349Z,69260.44
2022-08-29T17:49:07.936Z,69249.78
2022-08-29T17:51:36.387Z,69240.06
2022-08-29T17:54:08.474Z,69234.94
2022-08-29T17:56:47.688Z,69227.91
2022-08-29T17:59:16.316Z,69212.72
2022-08-29T18:01:43.595Z,69205.09
2022-08-29T18:04:11.527Z,69200.00
2022-08-29T18:06:38.992Z,69192.00
2022-08-29T18:09:07.160Z,69194.28
2022-08-29T18:11:38.474Z,69186.31
2022-08-29T18:14:05.757Z,69184.03
2022-08-29T18:16:32.991Z,69173.94
2022-08-29T18:19:00.284Z,69173.59
2022-08-29T18:21:29.507Z,69165.03
2022-08-29T18:23:57.802Z,69137.09
2022-08-29T18:26:26.291Z,69127.44
2022-08-29T18:28:54.717Z,69145.25
2022-08-29T18:31:22.181Z,69146.97
2022-08-29T18:34:04.887Z,69136.13
2022-08-29T18:36:33.779Z,69126.44
2022-08-29T18:39:02.129Z,69122.44
2022-08-29T18:41:29.745Z,69116.19
2022-08-29T18:43:58.859Z,69105.69
2022-08-29T18:46:27.351Z,69103.47
2022-08-29T18:48:54.627Z,69107.06
2022-08-29T18:51:21.852Z,69096.41
2022-08-29T18:53:49.086Z,69086.72
2022-08-29T18:56:16.371Z,69056.22
2022-08-29T18:58:44.677Z,69075.16
2022-08-29T19:01:27.932Z,69052.22
2022-08-29T19:03:57.818Z,69076.28
2022-08-29T19:06:25.901Z,69074.75
2022-08-29T19:08:55.352Z,69078.56
2022-08-29T19:11:22.707Z,69078.56
2022-08-29T19:13:52.349Z,69076.28
2022-08-29T19:16:21.091Z,69054.06
2022-08-29T19:18:48.584Z,69047.59
2022-08-29T19:21:15.970Z,69011.22
2022-08-29T19:23:47.168Z,69031.84
2022-08-29T19:26:31.979Z,69029.00
2022-08-29T19:29:02.540Z,69030.72
2022-08-29T19:31:29.793Z,69019.31
2022-08-29T19:33:57.441Z,69019.72
2022-08-29T19:36:25.700Z,69019.13
2022-08-29T19:38:52.844Z,69015.88
2022-08-29T19:41:20.079Z,69022.72
2022-08-29T19:43:47.342Z,69023.84
2022-08-29T19:46:21.500Z,69029.00
2022-08-29T19:48:51.403Z,68993.56
2022-08-29T19:51:25.027Z,69012.31
2022-08-29T19:53:56.698Z,69004.69
2022-08-29T19:56:26.481Z,69011.34
2022-08-29T19:58:54.271Z,69004.50
2022-08-29T20:01:21.629Z,69013.44
2022-08-29T20:03:48.916Z,69004.69
2022-08-29T20:06:16.196Z,69002.22
2022-08-29T20:08:46.778Z,68998.44
2022-08-29T20:11:19.069Z,68999.38
2022-08-29T20:13:50.626Z,68997.09
2022-08-29T20:16:23.299Z,68966.25
2022-08-29T20:18:52.146Z,68987.44
2022-08-29T20:21:21.227Z,68975.66
2022-08-29T20:23:57.829Z,68978.31
2022-08-29T20:26:29.209Z,68982.31
2022-08-29T20:28:58.478Z,68987.81
2022-08-29T20:31:27.325Z,68988.56
2022-08-29T20:33:54.589Z,68981.34
2022-08-29T20:36:42.280Z,68985.72
2022-08-29T20:39:12.784Z,68990.44
2022-08-29T20:41:40.019Z,69005.47
2022-08-29T20:44:09.919Z,68997.84
2022-08-29T20:46:40.367Z,68991.19
2022-08-29T20:49:12.885Z,68988.16
2022-08-29T20:51:44.063Z,68986.28
2022-08-29T20:54:13.012Z,68979.44
2022-08-29T20:56:40.274Z,68977.34
2022-08-29T20:59:07.544Z,68989.53
2022-08-29T21:01:36.049Z,68983.44
2022-08-29T21:04:23.469Z,68975.47
2022-08-29T21:07:01.917Z,68972.63
2022-08-29T21:09:29.290Z,68965.22
2022-08-29T21:11:57.469Z,68966.00
2022-08-29T21:14:27.135Z,68957.66
2022-08-29T21:16:56.896Z,68954.59
2022-08-29T21:19:26.477Z,68965.63
2022-08-29T21:21:53.911Z,68965.22
2022-08-29T21:24:21.127Z,68965.78
2022-08-29T21:26:48.406Z,68964.81
2022-08-29T21:29:16.205Z,68970.75
2022-08-29T21:31:43.418Z,68973.38
2022-08-29T21:34:10.945Z,68980.59
2022-08-29T21:36:38.977Z,68985.88
2022-08-29T21:39:08.965Z,68993.09
2022-08-29T21:41:42.479Z,68961.09
2022-08-29T21:44:12.377Z,68976.03
2022-08-29T21:46:43.371Z,68967.50
2022-08-29T21:49:13.882Z,68969.38
2022-08-29T21:51:41.157Z,68977.75
2022-08-29T21:54:13.206Z,68958.72
2022-08-29T21:56:41.221Z,68958.97
2022-08-29T21:59:09.661Z,68937.16
2022-08-29T22:01:41.285Z,68921.38
2022-08-29T22:04:11.240Z,68918.53
2022-08-29T22:06:46.447Z,68879.16
2022-08-29T22:09:19.833Z,68895.94
2022-08-29T22:11:49.256Z,68902.19
2022-08-29T22:14:16.471Z,68915.28
2022-08-29T22:16:43.592Z,68935.06
2022-08-29T22:19:14.200Z,68910.47
2022-08-29T22:21:47.293Z,68919.84
2022-08-29T22:24:16.960Z,68908.28
2022-08-29T22:26:44.610Z,68900.31
2022-08-29T22:29:14.121Z,68892.91
2022-08-29T22:31:42.586Z,68885.53
2022-08-29T22:34:11.578Z,68876.59
2022-08-29T22:36:38.806Z,68873.97
2022-08-29T22:39:06.821Z,68860.47
2022-08-29T22:41:34.696Z,68852.13
2022-08-29T22:44:42.459Z,68846.06
2022-08-29T22:46:49.880Z,68842.69
2022-08-29T22:49:18.049Z,68824.44
2022-08-29T22:51:45.303Z,68825.22
2022-08-29T22:54:31.046Z,68812.13
2022-08-29T22:57:01.234Z,68813.28
2022-08-29T22:59:28.442Z,68811.19
2022-08-29T23:01:55.636Z,68807.03
2022-08-29T23:04:23.376Z,68805.13
2022-08-29T23:06:50.750Z,68794.09
2022-08-29T23:09:18.084Z,68791.81
2022-08-29T23:11:45.509Z,68799.06
2022-08-29T23:14:13.000Z,68798.50
2022-08-29T23:16:40.553Z,68785.56
2022-08-29T23:19:07.891Z,68770.78
2022-08-29T23:21:35.657Z,68763.03
2022-08-29T23:24:07.823Z,68761.69
2022-08-29T23:26:35.246Z,68763.22
2022-08-29T23:29:02.857Z,68750.13
2022-08-29T23:31:30.018Z,68753.00
2022-08-29T23:33:57.262Z,68743.31
2022-08-29T23:36:24.364Z,68748.25
2022-08-29T23:38:52.728Z,68741.44
2022-08-29T23:41:20.033Z,68729.69
2022-08-29T23:43:47.174Z,68724.00
2022-08-29T23:46:14.649Z,68719.47
2022-08-29T23:48:41.860Z,68718.88
2022-08-29T23:51:11.196Z,68692.66
2022-08-29T23:53:38.493Z,68689.84
2022-08-29T23:56:15.444Z,68692.66
2022-08-29T23:58:42.988Z,68721.16
